createdAt,value
2022-12-28T00:00:25.140Z,973.50
2022-12-28T00:01:25.098Z,973.50
2022-12-28T00:02:25.127Z,973.51
2022-12-28T00:03:25.086Z,973.53
2022-12-28T00:04:25.082Z,973.54
2022-12-28T00:05:25.015Z,973.54
2022-12-28T00:06:25.022Z,973.48
2022-12-28T00:07:25.016Z,973.52
2022-12-28T00:08:25.008Z,973.45
2022-12-28T00:09:25.014Z,973.45
2022-12-28T00:11:07.278Z,973.46
2022-12-28T00:11:30.650Z,973.46
2022-12-28T00:12:25.969Z,973.46
2022-12-28T00:13:24.951Z,973.44
2022-12-28T00:14:24.951Z,973.44
2022-12-28T00:15:24.954Z,973.46
2022-12-28T00:16:25.007Z,973.44
2022-12-28T00:17:24.913Z,973.43
2022-12-28T00:18:24.880Z,973.49
2022-12-28T00:19:24.876Z,973.45
2022-12-28T00:20:24.864Z,973.39
2022-12-28T00:21:24.919Z,973.44
2022-12-28T00:22:24.853Z,973.44
2022-12-28T00:23:24.827Z,973.41
2022-12-28T00:24:24.853Z,973.37
2022-12-28T00:25:24.820Z,973.38
2022-12-28T00:26:24.788Z,973.40
2022-12-28T00:27:24.795Z,973.50
2022-12-28T00:28:24.777Z,973.41
2022-12-28T00:29:24.766Z,973.44
2022-12-28T00:30:24.753Z,973.47
2022-12-28T00:31:24.812Z,973.49
2022-12-28T00:32:24.914Z,973.51
2022-12-28T00:33:24.740Z,973.43
2022-12-28T00:34:24.712Z,973.49
2022-12-28T00:35:24.715Z,973.43
2022-12-28T00:36:24.701Z,973.46
2022-12-28T00:37:25.669Z,973.41
2022-12-28T00:38:24.662Z,973.44
2022-12-28T00:39:24.661Z,973.44
2022-12-28T00:40:24.671Z,973.40
2022-12-28T00:41:24.626Z,973.37
2022-12-28T00:42:24.644Z,973.34
2022-12-28T00:43:24.623Z,973.29
2022-12-28T00:44:24.595Z,973.29
2022-12-28T00:45:24.678Z,973.27
2022-12-28T00:46:24.574Z,973.27
2022-12-28T00:47:24.567Z,973.24
2022-12-28T00:48:24.578Z,973.25
2022-12-28T00:49:24.570Z,973.23
2022-12-28T00:50:24.523Z,973.18
2022-12-28T00:51:24.517Z,973.23
2022-12-28T00:52:24.535Z,973.22
2022-12-28T00:53:24.514Z,973.17
2022-12-28T00:54:24.501Z,973.13
2022-12-28T00:55:24.704Z,973.12
2022-12-28T00:56:24.493Z,973.17
2022-12-28T00:57:24.450Z,973.18
2022-12-28T00:58:24.466Z,973.25
2022-12-28T00:59:24.445Z,973.29
2022-12-28T01:00:24.478Z,973.31
2022-12-28T01:01:24.548Z,973.23
2022-12-28T01:02:24.393Z,973.24
2022-12-28T01:03:24.406Z,973.25
2022-12-28T01:04:24.404Z,973.27
2022-12-28T01:05:24.379Z,973.25
2022-12-28T01:06:24.371Z,973.23
2022-12-28T01:07:24.354Z,973.17
2022-12-28T01:08:24.358Z,973.22
2022-12-28T01:09:24.387Z,973.18
2022-12-28T01:10:24.313Z,973.21
2022-12-28T01:11:24.333Z,973.21
2022-12-28T01:12:24.286Z,973.12
2022-12-28T01:13:24.273Z,973.15
2022-12-28T01:14:24.263Z,973.16
2022-12-28T01:15:24.282Z,973.14
2022-12-28T01:16:24.361Z,973.11
2022-12-28T01:17:24.256Z,973.11
2022-12-28T01:18:24.219Z,973.11
2022-12-28T01:19:24.217Z,973.07
2022-12-28T01:20:24.218Z,973.07
2022-12-28T01:21:24.223Z,973.07
2022-12-28T01:22:24.201Z,973.10
2022-12-28T01:23:24.197Z,973.09
2022-12-28T01:24:24.159Z,973.12
2022-12-28T01:25:24.160Z,973.13
2022-12-28T01:26:24.170Z,973.10
2022-12-28T01:27:24.129Z,973.18
2022-12-28T01:28:24.115Z,973.17
2022-12-28T01:29:24.115Z,973.12
2022-12-28T01:30:24.081Z,973.15
2022-12-28T01:31:24.161Z,973.17
2022-12-28T01:32:24.069Z,973.21
2022-12-28T01:33:24.086Z,973.24
2022-12-28T01:34:24.070Z,973.19
2022-12-28T01:35:24.041Z,973.20
2022-12-28T01:36:24.070Z,973.19
2022-12-28T01:37:24.028Z,973.15
2022-12-28T01:38:24.024Z,973.15
2022-12-28T01:39:24.042Z,973.17
2022-12-28T01:40:24.003Z,973.08
2022-12-28T01:41:23.986Z,973.06
2022-12-28T01:42:23.950Z,973.06
2022-12-28T01:43:29.729Z,973.03
2022-12-28T01:44:24.985Z,973.07
2022-12-28T01:45:23.952Z,973.08
2022-12-28T01:46:23.906Z,973.04
2022-12-28T01:47:23.897Z,973.05
2022-12-28T01:48:23.898Z,973.03
2022-12-28T01:49:23.948Z,973.03
2022-12-28T01:50:23.870Z,973.02
2022-12-28T01:51:23.892Z,973.00
2022-12-28T01:52:23.861Z,972.93
2022-12-28T01:53:23.835Z,972.97
2022-12-28T01:54:23.824Z,972.86
2022-12-28T01:55:23.845Z,972.82
2022-12-28T01:56:23.809Z,972.85
2022-12-28T01:57:23.837Z,972.83
2022-12-28T01:58:23.811Z,972.80
2022-12-28T01:59:23.770Z,972.75
2022-12-28T02:00:23.790Z,972.80
2022-12-28T02:01:23.945Z,972.76
2022-12-28T02:02:23.953Z,972.73
2022-12-28T02:03:23.815Z,972.73
2022-12-28T02:04:23.715Z,972.66
2022-12-28T02:05:23.708Z,972.66
2022-12-28T02:06:23.730Z,972.68
2022-12-28T02:07:23.689Z,972.62
2022-12-28T02:08:23.702Z,972.59
2022-12-28T02:09:23.657Z,972.58
2022-12-28T02:10:42.447Z,972.56
2022-12-28T02:11:24.671Z,972.58
2022-12-28T02:12:23.653Z,972.53
2022-12-28T02:13:23.630Z,972.51
2022-12-28T02:14:23.638Z,972.55
2022-12-28T02:15:23.596Z,972.48
2022-12-28T02:16:23.601Z,972.45
2022-12-28T02:17:23.574Z,972.42
2022-12-28T02:18:23.592Z,972.41
2022-12-28T02:19:23.577Z,972.45
2022-12-28T02:20:23.558Z,972.42
2022-12-28T02:21:23.525Z,972.50
2022-12-28T02:22:23.510Z,972.55
2022-12-28T02:23:23.507Z,972.53
2022-12-28T02:24:23.558Z,972.54
2022-12-28T02:25:23.501Z,972.54
2022-12-28T02:26:23.467Z,972.51
2022-12-28T02:27:23.457Z,972.49
2022-12-28T02:28:23.464Z,972.41
2022-12-28T02:29:23.456Z,972.38
2022-12-28T02:30:23.437Z,972.39
2022-12-28T02:31:23.422Z,972.37
2022-12-28T02:32:23.401Z,972.41
2022-12-28T02:33:23.393Z,972.34
2022-12-28T02:34:23.409Z,972.36
2022-12-28T02:35:23.412Z,972.36
2022-12-28T02:36:23.377Z,972.36
2022-12-28T02:37:23.377Z,972.34
2022-12-28T02:38:23.379Z,972.37
2022-12-28T02:39:23.326Z,972.30
2022-12-28T02:40:23.337Z,972.30
2022-12-28T02:41:23.304Z,972.32
2022-12-28T02:42:23.332Z,972.22
2022-12-28T02:43:23.302Z,972.24
2022-12-28T02:44:23.282Z,972.26
2022-12-28T02:45:23.277Z,972.26
2022-12-28T02:46:23.301Z,972.22
2022-12-28T02:47:23.244Z,972.23
2022-12-28T02:48:23.241Z,972.21
2022-12-28T02:49:23.248Z,972.20
2022-12-28T02:50:23.201Z,972.19
2022-12-28T02:51:23.209Z,972.20
2022-12-28T02:52:23.212Z,972.19
2022-12-28T02:53:23.187Z,972.14
2022-12-28T02:54:23.176Z,972.16
2022-12-28T02:55:23.148Z,972.18
2022-12-28T02:56:23.159Z,972.19
2022-12-28T02:57:23.216Z,972.12
2022-12-28T02:58:23.153Z,972.08
2022-12-28T02:59:23.137Z,971.97
2022-12-28T03:00:23.118Z,972.02
2022-12-28T03:01:23.129Z,971.95
2022-12-28T03:02:23.320Z,971.93
2022-12-28T03:03:23.108Z,971.93
2022-12-28T03:04:23.055Z,971.94
2022-12-28T03:05:23.075Z,971.85
2022-12-28T03:06:28.462Z,971.87
2022-12-28T03:07:24.015Z,971.87
2022-12-28T03:08:23.025Z,971.78
2022-12-28T03:09:23.023Z,971.81
2022-12-28T03:10:23.237Z,971.81
2022-12-28T03:11:22.991Z,971.82
2022-12-28T03:12:22.980Z,971.80
2022-12-28T03:13:22.948Z,971.82
2022-12-28T03:14:22.940Z,971.82
2022-12-28T03:15:22.959Z,971.85
2022-12-28T03:16:22.956Z,971.82
2022-12-28T03:17:22.921Z,971.76
2022-12-28T03:18:22.892Z,971.75
2022-12-28T03:19:22.891Z,971.75
2022-12-28T03:20:22.890Z,971.78
2022-12-28T03:21:22.903Z,971.77
2022-12-28T03:22:22.875Z,971.73
2022-12-28T03:23:22.838Z,971.77
2022-12-28T03:24:22.836Z,971.66
2022-12-28T03:25:22.818Z,971.59
2022-12-28T03:26:22.846Z,971.66
2022-12-28T03:27:22.807Z,971.61
2022-12-28T03:28:22.833Z,971.65
2022-12-28T03:29:22.816Z,971.57
2022-12-28T03:30:22.763Z,971.56
2022-12-28T03:31:22.815Z,971.61
2022-12-28T03:32:22.772Z,971.59
2022-12-28T03:33:22.742Z,971.62
2022-12-28T03:34:22.744Z,971.58
2022-12-28T03:35:22.749Z,971.58
2022-12-28T03:36:22.711Z,971.55
2022-12-28T03:37:22.685Z,971.57
2022-12-28T03:38:22.677Z,971.56
2022-12-28T03:39:22.687Z,971.46
2022-12-28T03:40:22.690Z,971.45
2022-12-28T03:41:22.639Z,971.44
2022-12-28T03:42:22.641Z,971.42
2022-12-28T03:43:22.632Z,971.40
2022-12-28T03:44:22.632Z,971.42
2022-12-28T03:45:44.333Z,971.35
2022-12-28T03:46:23.641Z,971.38
2022-12-28T03:47:22.582Z,971.30
2022-12-28T03:48:22.560Z,971.34
2022-12-28T03:49:22.576Z,971.30
2022-12-28T03:50:22.557Z,971.28
2022-12-28T03:51:22.573Z,971.27
2022-12-28T03:52:22.567Z,971.32
2022-12-28T03:53:22.508Z,971.25
2022-12-28T03:54:22.502Z,971.34
2022-12-28T03:55:22.497Z,971.31
2022-12-28T03:56:22.507Z,971.29
2022-12-28T03:57:22.507Z,971.34
2022-12-28T03:58:22.457Z,971.28
2022-12-28T03:59:22.456Z,971.24
2022-12-28T04:00:22.460Z,971.28
2022-12-28T04:01:22.561Z,971.26
2022-12-28T04:02:22.580Z,971.26
2022-12-28T04:03:22.418Z,971.27
2022-12-28T04:04:22.435Z,971.35
2022-12-28T04:05:22.399Z,971.23
2022-12-28T04:06:22.385Z,971.22
2022-12-28T04:07:22.364Z,971.18
2022-12-28T04:08:22.360Z,971.15
2022-12-28T04:09:22.330Z,971.16
2022-12-28T04:10:22.376Z,971.17
2022-12-28T04:11:22.344Z,971.09
2022-12-28T04:12:22.302Z,971.18
2022-12-28T04:13:22.310Z,971.19
2022-12-28T04:14:22.275Z,971.15
2022-12-28T04:15:22.270Z,971.10
2022-12-28T04:16:22.359Z,971.06
2022-12-28T04:17:22.246Z,971.11
2022-12-28T04:18:22.241Z,971.13
2022-12-28T04:19:22.279Z,971.09
2022-12-28T04:20:22.206Z,971.13
2022-12-28T04:21:22.194Z,971.14
2022-12-28T04:22:22.179Z,971.14
2022-12-28T04:23:22.191Z,971.09
2022-12-28T04:24:22.176Z,971.06
2022-12-28T04:25:22.178Z,971.03
2022-12-28T04:26:22.135Z,971.03
2022-12-28T04:27:22.127Z,971.03
2022-12-28T04:28:22.125Z,971.03
2022-12-28T04:29:22.106Z,970.98
2022-12-28T04:30:22.109Z,971.03
2022-12-28T04:31:22.116Z,971.01
2022-12-28T04:32:22.099Z,970.97
2022-12-28T04:33:22.065Z,970.98
2022-12-28T04:34:22.098Z,971.00
2022-12-28T04:35:22.050Z,970.98
2022-12-28T04:36:22.045Z,971.00
2022-12-28T04:37:22.014Z,971.07
2022-12-28T04:38:22.008Z,971.05
2022-12-28T04:39:22.016Z,971.04
2022-12-28T04:40:22.008Z,970.99
2022-12-28T04:41:22.009Z,971.00
2022-12-28T04:42:21.987Z,971.02
2022-12-28T04:43:21.949Z,970.97
2022-12-28T04:44:21.953Z,971.04
2022-12-28T04:45:22.542Z,971.02
2022-12-28T04:46:22.010Z,971.03
2022-12-28T04:47:21.937Z,971.03
2022-12-28T04:48:21.913Z,970.96
2022-12-28T04:49:21.942Z,971.01
2022-12-28T04:50:21.869Z,970.92
2022-12-28T04:51:21.864Z,971.01
2022-12-28T04:52:21.858Z,970.99
2022-12-28T04:53:21.860Z,970.97
2022-12-28T04:54:21.828Z,970.99
2022-12-28T04:55:32.811Z,970.98
2022-12-28T04:56:22.808Z,971.07
2022-12-28T04:57:21.834Z,971.05
2022-12-28T04:58:21.803Z,971.04
2022-12-28T04:59:21.791Z,970.98
2022-12-28T05:00:21.796Z,970.95
2022-12-28T05:01:21.856Z,970.95
2022-12-28T05:02:22.847Z,970.89
2022-12-28T05:03:21.728Z,970.89
2022-12-28T05:04:21.751Z,970.88
2022-12-28T05:05:21.727Z,970.92
2022-12-28T05:06:21.702Z,970.95
2022-12-28T05:07:21.706Z,970.94
2022-12-28T05:08:21.678Z,971.03
2022-12-28T05:09:21.668Z,971.03
2022-12-28T05:10:21.666Z,971.02
2022-12-28T05:11:21.640Z,971.01
2022-12-28T05:12:21.640Z,970.96
2022-12-28T05:13:21.638Z,970.97
2022-12-28T05:14:21.659Z,971.00
2022-12-28T05:15:21.632Z,971.02
2022-12-28T05:16:21.664Z,970.94
2022-12-28T05:17:21.573Z,970.91
2022-12-28T05:18:21.559Z,970.84
2022-12-28T05:19:21.576Z,970.80
2022-12-28T05:20:21.557Z,970.76
2022-12-28T05:21:21.553Z,970.74
2022-12-28T05:22:21.553Z,970.74
2022-12-28T05:23:21.501Z,970.79
2022-12-28T05:24:21.495Z,970.72
2022-12-28T05:25:21.519Z,970.76
2022-12-28T05:26:21.481Z,970.78
2022-12-28T05:27:21.492Z,970.72
2022-12-28T05:28:21.479Z,970.71
2022-12-28T05:29:21.433Z,970.67
2022-12-28T05:30:21.426Z,970.66
2022-12-28T05:31:21.480Z,970.68
2022-12-28T05:32:21.449Z,970.64
2022-12-28T05:33:21.415Z,970.68
2022-12-28T05:34:21.380Z,970.64
2022-12-28T05:35:21.370Z,970.60
2022-12-28T05:36:21.383Z,970.58
2022-12-28T05:37:22.240Z,970.62
2022-12-28T05:38:21.354Z,970.58
2022-12-28T05:39:21.372Z,970.60
2022-12-28T05:40:21.330Z,970.59
2022-12-28T05:41:21.303Z,970.61
2022-12-28T05:42:21.300Z,970.56
2022-12-28T05:43:21.295Z,970.59
2022-12-28T05:44:21.310Z,970.63
2022-12-28T05:45:21.267Z,970.67
2022-12-28T05:46:21.370Z,970.65
2022-12-28T05:47:21.236Z,970.65
2022-12-28T05:48:21.272Z,970.67
2022-12-28T05:49:21.238Z,970.69
2022-12-28T05:50:21.227Z,970.78
2022-12-28T05:51:21.194Z,970.81
2022-12-28T05:52:21.219Z,970.82
2022-12-28T05:53:21.192Z,970.85
2022-12-28T05:54:21.164Z,970.86
2022-12-28T05:55:21.170Z,970.78
2022-12-28T05:56:21.154Z,970.80
2022-12-28T05:57:21.127Z,970.82
2022-12-28T05:58:21.131Z,970.82
2022-12-28T05:59:21.111Z,970.81
2022-12-28T06:00:21.096Z,970.83
2022-12-28T06:01:21.163Z,970.83
2022-12-28T06:02:24.658Z,970.79
2022-12-28T06:03:21.227Z,970.79
2022-12-28T06:04:21.049Z,970.74
2022-12-28T06:05:21.041Z,970.70
2022-12-28T06:06:21.039Z,970.69
2022-12-28T06:07:21.037Z,970.74
2022-12-28T06:08:22.774Z,970.70
2022-12-28T06:09:20.993Z,970.73
2022-12-28T06:10:20.980Z,970.71
2022-12-28T06:11:20.997Z,970.63
2022-12-28T06:12:20.977Z,970.63
2022-12-28T06:13:20.962Z,970.63
2022-12-28T06:14:20.934Z,970.61
2022-12-28T06:15:20.922Z,970.62
2022-12-28T06:16:20.973Z,970.69
2022-12-28T06:17:20.929Z,970.64
2022-12-28T06:18:20.913Z,970.61
2022-12-28T06:19:20.911Z,970.59
2022-12-28T06:20:20.894Z,970.62
2022-12-28T06:21:20.870Z,970.62
2022-12-28T06:22:20.868Z,970.60
2022-12-28T06:23:20.844Z,970.64
2022-12-28T06:24:20.877Z,970.65
2022-12-28T06:25:20.814Z,970.61
2022-12-28T06:26:20.812Z,970.62
2022-12-28T06:27:20.816Z,970.63
2022-12-28T06:28:20.807Z,970.63
2022-12-28T06:29:20.799Z,970.66
2022-12-28T06:30:20.786Z,970.66
2022-12-28T06:31:20.917Z,970.66
2022-12-28T06:32:20.744Z,970.72
2022-12-28T06:33:20.723Z,970.62
2022-12-28T06:34:20.728Z,970.59
2022-12-28T06:35:20.721Z,970.63
2022-12-28T06:36:20.951Z,970.66
2022-12-28T06:37:20.695Z,970.70
2022-12-28T06:38:20.672Z,970.65
2022-12-28T06:39:20.675Z,970.61
2022-12-28T06:40:33.373Z,970.62
2022-12-28T06:41:21.637Z,970.63
2022-12-28T06:42:20.655Z,970.65
2022-12-28T06:43:20.612Z,970.56
2022-12-28T06:44:20.615Z,970.58
2022-12-28T06:45:20.622Z,970.62
2022-12-28T06:46:20.645Z,970.58
2022-12-28T06:47:20.606Z,970.58
2022-12-28T06:48:20.558Z,970.62
2022-12-28T06:49:20.548Z,970.57
2022-12-28T06:50:20.540Z,970.61
2022-12-28T06:51:20.584Z,970.58
2022-12-28T06:53:11.974Z,970.52
2022-12-28T06:54:12.681Z,970.59
2022-12-28T06:55:11.951Z,970.58
2022-12-28T06:56:11.931Z,970.58
2022-12-28T06:57:11.955Z,970.59
2022-12-28T06:58:11.894Z,970.60
2022-12-28T06:59:11.900Z,970.53
2022-12-28T07:00:11.883Z,970.57
2022-12-28T07:01:11.998Z,970.50
2022-12-28T07:02:12.072Z,970.56
2022-12-28T07:03:11.871Z,970.47
2022-12-28T07:04:11.825Z,970.52
2022-12-28T07:05:11.819Z,970.59
2022-12-28T07:06:11.833Z,970.59
2022-12-28T07:07:11.843Z,970.61
2022-12-28T07:08:12.896Z,970.65
2022-12-28T07:09:11.771Z,970.60
2022-12-28T07:10:11.765Z,970.60
2022-12-28T07:11:11.778Z,970.61
2022-12-28T07:12:11.792Z,970.55
2022-12-28T07:13:11.765Z,970.60
2022-12-28T07:14:11.728Z,970.64
2022-12-28T07:15:11.701Z,970.60
2022-12-28T07:16:11.798Z,970.50
2022-12-28T07:17:11.710Z,970.49
2022-12-28T07:18:11.687Z,970.54
2022-12-28T07:19:11.713Z,970.53
2022-12-28T07:20:11.652Z,970.55
2022-12-28T07:21:11.635Z,970.54
2022-12-28T07:22:11.628Z,970.52
2022-12-28T07:23:11.635Z,970.52
2022-12-28T07:24:11.631Z,970.56
2022-12-28T07:25:11.643Z,970.57
2022-12-28T07:26:11.582Z,970.62
2022-12-28T07:27:11.590Z,970.62
2022-12-28T07:28:11.584Z,970.61
2022-12-28T07:29:11.568Z,970.61
2022-12-28T07:30:11.537Z,970.61
2022-12-28T07:31:11.570Z,970.59
2022-12-28T07:32:11.516Z,970.58
2022-12-28T07:33:11.539Z,970.59
2022-12-28T07:34:11.540Z,970.60
2022-12-28T07:35:11.502Z,970.59
2022-12-28T07:36:11.486Z,970.58
2022-12-28T07:37:11.458Z,970.53
2022-12-28T07:38:11.781Z,970.55
2022-12-28T07:39:11.457Z,970.55
2022-12-28T07:40:11.466Z,970.58
2022-12-28T07:41:11.434Z,970.60
2022-12-28T07:42:11.513Z,970.59
2022-12-28T07:43:11.393Z,970.58
2022-12-28T07:44:11.410Z,970.58
2022-12-28T07:45:11.373Z,970.56
2022-12-28T07:46:11.477Z,970.64
2022-12-28T07:47:11.383Z,970.59
2022-12-28T07:48:11.379Z,970.58
2022-12-28T07:49:11.330Z,970.59
2022-12-28T07:50:11.337Z,970.54
2022-12-28T07:51:11.341Z,970.53
2022-12-28T07:52:11.320Z,970.52
2022-12-28T07:53:11.320Z,970.50
2022-12-28T07:54:11.287Z,970.47
2022-12-28T07:55:11.265Z,970.47
2022-12-28T07:56:11.292Z,970.45
2022-12-28T07:57:11.273Z,970.47
2022-12-28T07:58:11.299Z,970.47
2022-12-28T07:59:11.214Z,970.47
2022-12-28T08:00:11.252Z,970.47
2022-12-28T08:01:11.469Z,970.49
2022-12-28T08:02:11.256Z,970.56
2022-12-28T08:03:11.196Z,970.53
2022-12-28T08:04:11.159Z,970.49
2022-12-28T08:05:11.153Z,970.51
2022-12-28T08:06:11.220Z,970.49
2022-12-28T08:07:11.148Z,970.49
2022-12-28T08:08:11.123Z,970.49
2022-12-28T08:09:11.142Z,970.47
2022-12-28T08:10:11.094Z,970.43
2022-12-28T08:11:11.087Z,970.45
2022-12-28T08:12:11.095Z,970.41
2022-12-28T08:13:11.088Z,970.48
2022-12-28T08:14:11.066Z,970.44
2022-12-28T08:15:11.115Z,970.42
2022-12-28T08:16:11.136Z,970.42
2022-12-28T08:17:14.869Z,970.40
2022-12-28T08:18:12.011Z,970.41
2022-12-28T08:19:11.005Z,970.42
2022-12-28T08:20:11.007Z,970.44
2022-12-28T08:21:10.967Z,970.39
2022-12-28T08:22:11.261Z,970.42
2022-12-28T08:23:10.949Z,970.41
2022-12-28T08:24:10.952Z,970.38
2022-12-28T08:25:10.933Z,970.35
2022-12-28T08:26:10.928Z,970.27
2022-12-28T08:27:10.903Z,970.27
2022-12-28T08:28:10.915Z,970.26
2022-12-28T08:29:10.883Z,970.28
2022-12-28T08:30:10.902Z,970.32
2022-12-28T08:31:10.908Z,970.30
2022-12-28T08:32:10.878Z,970.32
2022-12-28T08:33:10.837Z,970.33
2022-12-28T08:34:10.829Z,970.41
2022-12-28T08:35:10.860Z,970.43
2022-12-28T08:36:10.830Z,970.43
2022-12-28T08:37:10.806Z,970.43
2022-12-28T08:38:10.809Z,970.49
2022-12-28T08:39:10.771Z,970.49
2022-12-28T08:40:10.783Z,970.44
2022-12-28T08:41:10.759Z,970.43
2022-12-28T08:42:10.783Z,970.44
2022-12-28T08:43:10.750Z,970.44
2022-12-28T08:44:10.718Z,970.48
2022-12-28T08:45:10.705Z,970.38
2022-12-28T08:46:10.908Z,970.35
2022-12-28T08:47:10.737Z,970.37
2022-12-28T08:48:10.698Z,970.35
2022-12-28T08:49:10.683Z,970.37
2022-12-28T08:50:12.232Z,970.27
2022-12-28T08:51:10.640Z,970.32
2022-12-28T08:52:10.660Z,970.29
2022-12-28T08:53:10.639Z,970.25
2022-12-28T08:54:10.655Z,970.25
2022-12-28T08:55:10.615Z,970.28
2022-12-28T08:56:10.623Z,970.22
2022-12-28T08:57:10.576Z,970.21
2022-12-28T08:58:10.612Z,970.16
2022-12-28T08:59:10.586Z,970.20
2022-12-28T09:00:10.566Z,970.14
2022-12-28T09:01:10.614Z,970.10
2022-12-28T09:02:10.639Z,970.11
2022-12-28T09:03:10.617Z,970.09
2022-12-28T09:04:10.813Z,970.09
2022-12-28T09:05:10.493Z,970.10
2022-12-28T09:06:10.499Z,970.07
2022-12-28T09:07:10.469Z,970.10
2022-12-28T09:08:10.453Z,970.10
2022-12-28T09:09:10.469Z,970.12
2022-12-28T09:10:10.540Z,970.11
2022-12-28T09:11:10.431Z,970.09
2022-12-28T09:12:10.436Z,970.10
2022-12-28T09:13:10.406Z,970.08
2022-12-28T09:14:10.386Z,970.08
2022-12-28T09:15:10.379Z,970.13
2022-12-28T09:16:10.568Z,970.07
2022-12-28T09:17:10.375Z,970.08
2022-12-28T09:18:10.381Z,970.07
2022-12-28T09:19:10.381Z,969.98
2022-12-28T09:20:10.402Z,970.01
2022-12-28T09:21:10.368Z,970.01
2022-12-28T09:22:10.313Z,970.01
2022-12-28T09:23:10.321Z,969.97
2022-12-28T09:24:10.355Z,970.00
2022-12-28T09:25:10.267Z,970.01
2022-12-28T09:26:10.252Z,970.00
2022-12-28T09:27:10.339Z,970.00
2022-12-28T09:28:10.249Z,970.07
2022-12-28T09:29:10.242Z,970.03
2022-12-28T09:30:10.258Z,970.00
2022-12-28T09:31:10.231Z,970.03
2022-12-28T09:32:10.196Z,970.01
2022-12-28T09:33:10.209Z,970.01
2022-12-28T09:35:11.152Z,969.99
2022-12-28T09:36:10.170Z,969.98
2022-12-28T09:37:10.140Z,970.01
2022-12-28T09:38:10.142Z,969.92
2022-12-28T09:39:10.167Z,969.95
2022-12-28T09:40:10.183Z,969.93
2022-12-28T09:41:10.125Z,969.91
2022-12-28T09:42:10.091Z,969.90
2022-12-28T09:43:10.065Z,969.91
2022-12-28T09:44:10.084Z,969.94
2022-12-28T09:45:10.110Z,969.90
2022-12-28T09:46:10.095Z,969.88
2022-12-28T09:47:10.077Z,969.90
2022-12-28T09:48:10.010Z,969.92
2022-12-28T09:49:10.005Z,969.83
2022-12-28T09:50:10.023Z,969.85
2022-12-28T09:51:10.001Z,969.84
2022-12-28T09:52:09.995Z,969.86
2022-12-28T09:53:10.010Z,969.92
2022-12-28T09:54:09.957Z,969.87
2022-12-28T09:55:09.967Z,969.83
2022-12-28T09:56:09.970Z,969.87
2022-12-28T09:57:09.932Z,969.83
2022-12-28T09:58:09.932Z,969.82
2022-12-28T09:59:09.894Z,969.83
2022-12-28T10:00:09.891Z,969.84
2022-12-28T10:01:09.944Z,969.80
2022-12-28T10:02:09.940Z,969.75
2022-12-28T10:03:09.985Z,969.75
2022-12-28T10:04:09.844Z,969.70
2022-12-28T10:05:09.821Z,969.69
2022-12-28T10:06:09.829Z,969.67
2022-12-28T10:07:09.834Z,969.65
2022-12-28T10:08:09.824Z,969.66
2022-12-28T10:09:09.818Z,969.64
2022-12-28T10:10:09.762Z,969.64
2022-12-28T10:11:09.778Z,969.64
2022-12-28T10:12:09.785Z,969.58
2022-12-28T10:13:37.143Z,969.55
2022-12-28T10:14:10.765Z,969.56
2022-12-28T10:15:09.799Z,969.54
2022-12-28T10:16:09.722Z,969.53
2022-12-28T10:17:09.710Z,969.49
2022-12-28T10:18:09.673Z,969.56
2022-12-28T10:19:09.730Z,969.54
2022-12-28T10:20:09.690Z,969.45
2022-12-28T10:21:09.677Z,969.44
2022-12-28T10:22:09.629Z,969.42
2022-12-28T10:23:09.635Z,969.45
2022-12-28T10:24:30.772Z,969.40
2022-12-28T10:25:10.640Z,969.36
2022-12-28T10:26:09.625Z,969.38
2022-12-28T10:27:09.573Z,969.38
2022-12-28T10:28:09.575Z,969.39
2022-12-28T10:29:09.588Z,969.31
2022-12-28T10:30:09.583Z,969.32
2022-12-28T10:31:09.709Z,969.30
2022-12-28T10:32:09.656Z,969.32
2022-12-28T10:33:13.704Z,969.32
2022-12-28T10:34:09.500Z,969.27
2022-12-28T10:35:09.489Z,969.31
2022-12-28T10:36:09.519Z,969.27
2022-12-28T10:37:14.033Z,969.26
2022-12-28T10:38:10.554Z,969.22
2022-12-28T10:39:09.439Z,969.17
2022-12-28T10:40:09.459Z,969.17
2022-12-28T10:41:09.421Z,969.21
2022-12-28T10:42:09.429Z,969.16
2022-12-28T10:43:11.204Z,969.18
2022-12-28T10:44:38.295Z,969.15
2022-12-28T10:45:10.372Z,969.08
2022-12-28T10:46:09.368Z,969.11
2022-12-28T10:47:09.375Z,969.15
2022-12-28T10:48:09.350Z,969.11
2022-12-28T10:49:15.258Z,969.05
2022-12-28T10:50:36.252Z,969.06
2022-12-28T10:51:10.311Z,969.08
2022-12-28T10:52:09.296Z,969.01
2022-12-28T10:53:17.598Z,968.97
2022-12-28T10:54:09.302Z,968.96
2022-12-28T10:55:09.262Z,969.01
2022-12-28T10:56:09.283Z,968.93
2022-12-28T10:57:09.251Z,969.01
2022-12-28T10:59:10.262Z,968.86
2022-12-28T11:00:09.234Z,968.86
2022-12-28T11:01:09.346Z,968.89
2022-12-28T11:02:09.321Z,968.80
2022-12-28T11:03:09.237Z,968.81
2022-12-28T11:04:09.176Z,968.77
2022-12-28T11:05:09.169Z,968.78
2022-12-28T11:06:09.137Z,968.79
2022-12-28T11:07:09.143Z,968.75
2022-12-28T11:08:09.125Z,968.78
2022-12-28T11:09:09.110Z,968.73
2022-12-28T11:10:09.139Z,968.79
2022-12-28T11:11:09.106Z,968.74
2022-12-28T11:12:09.112Z,968.70
2022-12-28T11:13:09.063Z,968.69
2022-12-28T11:14:09.080Z,968.72
2022-12-28T11:15:09.041Z,968.71
2022-12-28T11:16:09.117Z,968.68
2022-12-28T11:17:09.051Z,968.64
2022-12-28T11:18:09.001Z,968.68
2022-12-28T11:19:09.002Z,968.67
2022-12-28T11:20:09.004Z,968.66
2022-12-28T11:21:08.980Z,968.69
2022-12-28T11:22:09.001Z,968.66
2022-12-28T11:23:08.952Z,968.67
2022-12-28T11:24:08.936Z,968.67
2022-12-28T11:25:08.929Z,968.59
2022-12-28T11:26:08.928Z,968.57
2022-12-28T11:27:08.928Z,968.52
2022-12-28T11:28:08.922Z,968.54
2022-12-28T11:29:08.883Z,968.51
2022-12-28T11:30:13.715Z,968.51
2022-12-28T11:31:09.912Z,968.49
2022-12-28T11:32:08.880Z,968.43
2022-12-28T11:33:08.855Z,968.43
2022-12-28T11:34:08.824Z,968.44
2022-12-28T11:35:08.815Z,968.36
2022-12-28T11:36:10.306Z,968.40
2022-12-28T11:37:08.821Z,968.35
2022-12-28T11:38:08.809Z,968.36
2022-12-28T11:39:08.782Z,968.37
2022-12-28T11:40:08.757Z,968.45
2022-12-28T11:41:08.760Z,968.43
2022-12-28T11:43:09.749Z,968.44
2022-12-28T11:44:08.768Z,968.43
2022-12-28T11:45:08.719Z,968.36
2022-12-28T11:46:08.742Z,968.37
2022-12-28T11:47:08.681Z,968.41
2022-12-28T11:48:08.701Z,968.39
2022-12-28T11:49:08.660Z,968.33
2022-12-28T11:50:08.675Z,968.35
2022-12-28T11:51:08.636Z,968.29
2022-12-28T11:52:08.635Z,968.29
2022-12-28T11:53:13.724Z,968.28
2022-12-28T11:54:09.649Z,968.33
2022-12-28T11:55:08.603Z,968.26
2022-12-28T11:56:08.621Z,968.25
2022-12-28T11:57:08.573Z,968.21
2022-12-28T11:58:08.574Z,968.19
2022-12-28T11:59:08.564Z,968.13
2022-12-28T12:00:08.590Z,968.16
2022-12-28T12:01:08.569Z,968.17
2022-12-28T12:02:08.581Z,968.11
2022-12-28T12:03:08.653Z,968.05
2022-12-28T12:04:08.496Z,968.04
2022-12-28T12:05:08.513Z,968.11
2022-12-28T12:06:08.472Z,968.01
2022-12-28T12:07:08.484Z,967.99
2022-12-28T12:08:08.478Z,967.95
2022-12-28T12:09:08.441Z,968.03
2022-12-28T12:10:08.481Z,967.95
2022-12-28T12:11:08.450Z,967.92
2022-12-28T12:12:10.882Z,967.95
2022-12-28T12:13:08.414Z,967.92
2022-12-28T12:14:08.381Z,967.97
2022-12-28T12:15:08.367Z,967.89
2022-12-28T12:16:08.388Z,967.94
2022-12-28T12:17:08.444Z,967.83
2022-12-28T12:18:08.356Z,967.86
2022-12-28T12:19:08.331Z,967.85
2022-12-28T12:20:08.349Z,967.82
2022-12-28T12:21:15.079Z,967.77
2022-12-28T12:22:09.303Z,967.76
2022-12-28T12:23:08.339Z,967.76
2022-12-28T12:24:08.298Z,967.75
2022-12-28T12:25:08.303Z,967.74
2022-12-28T12:26:08.245Z,967.73
2022-12-28T12:27:12.069Z,967.71
2022-12-28T12:28:09.252Z,967.71
2022-12-28T12:29:08.790Z,967.75
2022-12-28T12:30:08.218Z,967.65
2022-12-28T12:31:08.271Z,967.70
2022-12-28T12:32:08.208Z,967.64